Greeley, CO

5:38 AM MST on February 06, 2016 (GMT -0700)
Ross Hall - UNC | | Change Station
CLOSE
Current Station
Personal Weather Station
Location: Greeley, CO
Elevation: 4790 ft
Nearby Weather Stations

Elev 4790 ft 40.40 °N, 104.70 °W | Updated 1 minute ago

Partly Cloudy
Partly Cloudy
10.4 °F
Feels Like 10 °F
N
1.0
Wind Variable Wind from South
Gusts 1.0 mph

Today
High -- | Low -- °F
--% Chance of Precip.
Yesterday
High -- | Low -- °F
Precip. -- in
Pressure 30.22 in
Visibility 10.0 miles
Clouds Clear
Windchill 10 °F
Dew Point 6 °F
Humidity 81%
Rainfall in
Snow Depth Not available.
7:03 AM 5:22 PM
Waning Crescent, 6% visible
METAR KGXY 061235Z 00000KT 10SM CLR M17/M20 A3022 RMK AO1
Pressure 30.22 in
Visibility 10.0 miles
Clouds Clear
Windchill 10 °F
Dew Point 6 °F
Humidity 81%
Rainfall in
Snow Depth Not available.
7:03 AM 5:22 PM
Waning Crescent, 6% visible
METAR KGXY 061235Z 00000KT 10SM CLR M17/M20 A3022 RMK AO1

10-Day Weather Forecast

Almanac

Astronomy

Feb. 06, 2016 Rise Set
Actual Time
Civil Twilight
Nautical Twilight
Astronomical Twilight
Moon
Length of Visible Light
Length of Day
Tomorrow will be .
, % of the Moon is Illuminated

Today's Extremes

State Highs State Lows

Community

WunderPhotos

Upload Photos

1,890,950 photos uploaded!

WunderBlog® & News

Nearby

Air Quality

  Air Quality AQ Index Pollutant
Not available.

Snow Depth

Station Depth Elevation

Earthquake Activity

City Distance Mag. Time & Date
Minimum magnitude displayed is 2.5.

Coastal Water Temperatures

Place Temperature

Stations

Nearby Weather Stations

Station Location Temp. Windchill Dew Point Humidity Wind Precip. Elev Updated Type
                   

Watches & Warnings

There are currently no watches in effect.